Boulevard, CA (91905)

11:20 AM PDT on August 31, 2015 (GMT -0700)
Tierra Del Sol | | Change Station
CLOSE
Current Station
Personal Weather Station
Location: Boulevard, CA
Elevation: 3710 ft
Nearby Weather Stations

Elev 3710 ft 32.61 °N, 116.33 °W | Updated 1 minute ago

Partly Cloudy
Partly Cloudy
87.1 °F
Feels Like 84 °F
N
0.0
Wind Variable Wind from WSW
Gusts 12.0 mph

Today
High -- | Low -- °F
--% Chance of Precip.
Yesterday
High -- | Low -- °F
Precip. -- in
6:19 AM 7:11 PM
Waning Gibbous, 94% visible
Pressure 29.86 in
Visibility -9999.0 miles
Clouds
Heat Index 84 °F
Dew Point 36 °F
Humidity 16%
Rainfall in
Snow Depth Not available.
UV Not available.
Pollen 6.20 out of 12
Air Quality Not available.
Flu Activity Not available.
METAR KCZZ 311752Z AUTO 19008KT 29/M01 A2996 RMK AO1 SLP109 T02941006 10294 20117 52004
Pressure 29.86 in
Visibility -9999.0 miles
Clouds
Heat Index 84 °F
Dew Point 36 °F
Humidity 16%
Rainfall in
Snow Depth Not available.
UV Not available.
Pollen 6.20 out of 12
Air Quality Not available.
Flu Activity Not available.
METAR KCZZ 311752Z AUTO 19008KT 29/M01 A2996 RMK AO1 SLP109 T02941006 10294 20117 52004

10-Day Weather Forecast

×

Almanac

Astronomy

Aug. 31, 2015 Rise Set
Actual Time
Civil Twilight
Nautical Twilight
Astronomical Twilight
Moon
Length of Visible Light
Length of Day
Tomorrow will be .
, % of the Moon is Illuminated

Today's Extremes

State Highs State Lows

Community

WunderPhotos

Upload Photos

1,851,330 photos uploaded!

WunderBlogs® & News

Nearby

Air Quality

  Air Quality AQ Index Pollutant
Not available.

Snow Depth

Station Depth Elevation

Earthquake Activity

City Distance Mag. Time & Date
Minimum magnitude displayed is 2.5.

Coastal Water Temperatures

Place Temperature

Stations

Nearby Weather Stations

Station Location Temp. Windchill Dew Point Humidity Wind Precip. Elev Updated Type